createdAt,value
2023-09-18T00:00:34.084Z,98940.31
2023-09-18T00:03:04.178Z,98927.56
2023-09-18T00:05:32.238Z,98927.56
2023-09-18T00:07:59.114Z,98925.66
2023-09-18T00:10:27.500Z,98933.41
2023-09-18T00:12:54.159Z,98924.13
2023-09-18T00:15:20.839Z,98920.56
2023-09-18T00:17:47.553Z,98915.53
2023-09-18T00:20:14.813Z,98912.34
2023-09-18T00:22:41.566Z,98917.22
2023-09-18T00:25:08.457Z,98916.59
2023-09-18T00:27:37.135Z,98916.59
2023-09-18T00:30:05.271Z,98923.88
2023-09-18T00:32:32.103Z,98922.19
2023-09-18T00:34:58.887Z,98915.72
2023-09-18T00:37:25.540Z,98914.66
2023-09-18T00:39:52.230Z,98916.34
2023-09-18T00:42:19.267Z,98920.38
2023-09-18T00:44:46.442Z,98919.78
2023-09-18T00:47:15.421Z,98912.22
2023-09-18T00:49:46.139Z,98916.56
2023-09-18T00:52:13.607Z,98911.53
2023-09-18T00:54:41.703Z,98917.88
2023-09-18T00:57:10.278Z,98915.34
2023-09-18T00:59:38.707Z,98918.78
2023-09-18T01:02:05.589Z,98911.91
2023-09-18T01:04:34.305Z,98907.81
2023-09-18T01:07:04.937Z,98915.59
2023-09-18T01:09:32.618Z,98902.97
2023-09-18T01:12:09.681Z,98901.53
2023-09-18T01:14:49.686Z,98901.38
2023-09-18T01:17:17.688Z,98905.53
2023-09-18T01:19:47.378Z,98899.47
2023-09-18T01:22:19.062Z,98898.84
2023-09-18T01:24:50.410Z,98895.53
2023-09-18T01:27:18.688Z,98899.31
2023-09-18T01:29:46.579Z,98900.38
2023-09-18T01:32:13.506Z,98895.16
2023-09-18T01:37:21.728Z,98898.31
2023-09-18T01:39:51.049Z,98895.47
2023-09-18T01:42:18.601Z,98900.09
2023-09-18T01:44:46.338Z,98898.19
2023-09-18T01:47:16.768Z,98891.72
2023-09-18T01:49:43.985Z,98901.69
2023-09-18T01:52:11.255Z,98905.53
2023-09-18T01:54:37.963Z,98903.25
2023-09-18T01:57:05.991Z,98908.09
2023-09-18T01:59:32.810Z,98910.94
2023-09-18T02:02:00.704Z,98909.13
2023-09-18T02:04:55.844Z,98908.97
2023-09-18T02:07:15.435Z,98909.53
2023-09-18T02:09:42.452Z,98904.53
2023-09-18T02:12:09.165Z,98906.72
2023-09-18T02:14:35.937Z,98904.75
2023-09-18T02:17:02.690Z,98909.38
2023-09-18T02:19:29.527Z,98901.41
2023-09-18T02:21:59.014Z,98897.94
2023-09-18T02:24:25.990Z,98898.78
2023-09-18T02:26:52.741Z,98902.25
2023-09-18T02:29:19.432Z,98895.31
2023-09-18T02:31:46.083Z,98905.41
2023-09-18T02:34:12.880Z,98908.44
2023-09-18T02:36:39.522Z,98898.81
2023-09-18T02:39:06.318Z,98903.06
2023-09-18T02:41:33.044Z,98904.56
2023-09-18T02:43:59.785Z,98896.78
2023-09-18T02:46:26.545Z,98901.06
2023-09-18T02:48:53.459Z,98906.75
2023-09-18T02:51:20.347Z,98897.94
2023-09-18T02:53:47.041Z,98906.22
2023-09-18T02:56:14.652Z,98906.41
2023-09-18T02:58:41.396Z,98908.97
2023-09-18T03:01:09.331Z,98905.78
2023-09-18T03:03:36.322Z,98901.56
2023-09-18T03:06:07.512Z,98897.38
2023-09-18T03:08:34.587Z,98907.91
2023-09-18T03:11:01.392Z,98904.34
2023-09-18T03:13:29.530Z,98911.69
2023-09-18T03:15:57.591Z,98917.16
2023-09-18T03:18:24.602Z,98913.97
2023-09-18T03:20:51.513Z,98912.75
2023-09-18T03:23:19.420Z,98914.03
2023-09-18T03:25:49.663Z,98916.97
2023-09-18T03:28:19.115Z,98913.63
2023-09-18T03:30:46.195Z,98915.56
2023-09-18T03:33:13.333Z,98907.59
2023-09-18T03:35:48.902Z,98910.97
2023-09-18T03:38:16.590Z,98907.22
2023-09-18T03:40:44.403Z,98911.84
2023-09-18T03:43:13.242Z,98913.53
2023-09-18T03:45:42.848Z,98918.56
2023-09-18T03:48:10.167Z,98916.47
2023-09-18T03:50:37.093Z,98906.19
2023-09-18T03:53:04.169Z,98916.91
2023-09-18T03:55:31.349Z,98910.63
2023-09-18T03:57:58.473Z,98915.63
2023-09-18T04:00:25.522Z,98917.13
2023-09-18T04:02:52.555Z,98909.97
2023-09-18T04:05:20.127Z,98913.19
2023-09-18T04:07:47.943Z,98920.53
2023-09-18T04:10:24.656Z,98917.56
2023-09-18T04:12:53.028Z,98919.88
2023-09-18T04:15:20.898Z,98921.56
2023-09-18T04:17:48.555Z,98922.22
2023-09-18T04:20:15.996Z,98926.19
2023-09-18T04:22:51.156Z,98931.88
2023-09-18T04:25:20.469Z,98924.72
2023-09-18T04:27:48.050Z,98926.63
2023-09-18T04:30:15.224Z,98929.97
2023-09-18T04:32:42.460Z,98926.81
2023-09-18T04:35:10.254Z,98919.84
2023-09-18T04:37:38.681Z,98922.78
2023-09-18T04:40:11.934Z,98926.09
2023-09-18T04:42:40.747Z,98928.34
2023-09-18T04:45:07.966Z,98931.88
2023-09-18T04:47:34.670Z,98927.00
2023-09-18T04:50:01.472Z,98929.84
2023-09-18T04:52:28.226Z,98921.38
2023-09-18T04:54:55.626Z,98920.69
2023-09-18T04:57:23.497Z,98929.06
2023-09-18T04:59:58.484Z,98932.75
2023-09-18T05:02:37.531Z,98930.94
2023-09-18T05:05:05.232Z,98935.06
2023-09-18T05:07:33.749Z,98930.69
2023-09-18T05:10:00.408Z,98933.59
2023-09-18T05:12:27.145Z,98931.16
2023-09-18T05:14:53.805Z,98929.13
2023-09-18T05:17:20.651Z,98928.16
2023-09-18T05:19:47.321Z,98931.19
2023-09-18T05:22:13.960Z,98931.88
2023-09-18T05:24:40.929Z,98936.69
2023-09-18T05:27:08.641Z,98936.44
2023-09-18T05:29:38.896Z,98940.16
2023-09-18T05:32:05.764Z,98927.44
2023-09-18T05:34:33.359Z,98939.06
2023-09-18T05:37:00.231Z,98945.78
2023-09-18T05:39:26.878Z,98939.69
2023-09-18T05:41:53.816Z,98944.84
2023-09-18T05:44:20.471Z,98945.50
2023-09-18T05:46:47.389Z,98949.69
2023-09-18T05:49:14.129Z,98955.66
2023-09-18T05:51:40.784Z,98947.22
2023-09-18T05:54:07.493Z,98960.84
2023-09-18T05:56:35.098Z,98956.78
2023-09-18T05:59:02.054Z,98954.47
2023-09-18T06:01:29.016Z,98958.16
2023-09-18T06:03:55.839Z,98959.44
2023-09-18T06:06:22.690Z,98963.09
2023-09-18T06:08:49.407Z,98956.31
2023-09-18T06:11:16.145Z,98963.31
2023-09-18T06:13:42.755Z,98970.84
2023-09-18T06:16:09.728Z,98963.09
2023-09-18T06:18:39.374Z,98966.38
2023-09-18T06:21:06.735Z,98961.41
2023-09-18T06:23:33.550Z,98954.94
2023-09-18T06:26:00.680Z,98965.78
2023-09-18T06:28:27.340Z,98967.84
2023-09-18T06:30:55.278Z,98968.38
2023-09-18T06:33:22.352Z,98966.91
2023-09-18T06:35:49.860Z,98960.56
2023-09-18T06:38:16.771Z,98969.19
2023-09-18T06:40:43.521Z,98963.69
2023-09-18T06:43:10.442Z,98970.13
2023-09-18T06:45:39.155Z,98972.19
2023-09-18T06:48:06.344Z,98983.75
2023-09-18T06:50:33.236Z,98983.16
2023-09-18T06:52:59.926Z,98978.63
2023-09-18T06:55:26.596Z,98982.63
2023-09-18T06:57:53.457Z,98978.28
2023-09-18T07:00:21.989Z,98987.91
2023-09-18T07:02:51.102Z,98986.22
2023-09-18T07:05:18.066Z,98983.94
2023-09-18T07:07:44.862Z,98984.28
2023-09-18T07:10:11.726Z,98987.16
2023-09-18T07:12:38.696Z,98985.81
2023-09-18T07:15:06.570Z,98985.00
2023-09-18T07:17:36.942Z,98988.16
2023-09-18T07:20:15.338Z,98987.13
2023-09-18T07:22:48.742Z,98985.28
2023-09-18T07:25:16.008Z,98983.91
2023-09-18T07:27:45.367Z,98982.34
2023-09-18T07:30:13.601Z,98977.59
2023-09-18T07:32:41.432Z,98987.53
2023-09-18T07:35:09.673Z,98981.72
2023-09-18T07:37:37.233Z,98977.78
2023-09-18T07:40:05.586Z,98982.47
2023-09-18T07:42:32.325Z,98977.22
2023-09-18T07:44:59.653Z,98975.44
2023-09-18T07:47:26.938Z,98983.16
2023-09-18T07:49:55.464Z,98980.28
2023-09-18T07:52:22.281Z,98977.13
2023-09-18T07:54:49.037Z,98975.28
2023-09-18T07:57:16.961Z,98981.88
2023-09-18T07:59:43.873Z,98982.69
2023-09-18T08:02:10.995Z,98975.69
2023-09-18T08:04:37.774Z,98976.44
2023-09-18T08:07:08.051Z,98983.03
2023-09-18T08:09:38.198Z,98981.53
2023-09-18T08:12:05.124Z,98970.47
2023-09-18T08:14:31.885Z,98974.00
2023-09-18T08:17:00.182Z,98974.16
2023-09-18T08:19:27.590Z,98963.25
2023-09-18T08:21:55.663Z,98962.47
2023-09-18T08:24:22.456Z,98977.94
2023-09-18T08:26:49.321Z,98972.34
2023-09-18T08:29:16.550Z,98963.41
2023-09-18T08:31:43.771Z,98960.44
2023-09-18T08:34:10.631Z,98961.34
2023-09-18T08:36:37.294Z,98957.91
2023-09-18T08:39:07.006Z,98949.75
2023-09-18T08:41:34.408Z,98946.50
2023-09-18T08:44:04.453Z,98953.31
2023-09-18T08:46:34.067Z,98948.84
2023-09-18T08:49:01.559Z,98946.31
2023-09-18T08:51:29.820Z,98943.47
2023-09-18T08:53:57.354Z,98938.84
2023-09-18T08:56:24.600Z,98944.78
2023-09-18T08:58:52.107Z,98948.38
2023-09-18T09:01:19.187Z,98938.81
2023-09-18T09:03:48.743Z,98939.84
2023-09-18T09:06:15.557Z,98930.28
2023-09-18T09:08:42.360Z,98945.66
2023-09-18T09:11:09.178Z,98939.03
2023-09-18T09:13:42.044Z,98929.34
2023-09-18T09:16:14.372Z,98942.19
2023-09-18T09:18:50.647Z,98930.50
2023-09-18T09:21:18.225Z,98931.28
2023-09-18T09:23:53.886Z,98929.06
2023-09-18T09:26:24.200Z,98934.94
2023-09-18T09:28:51.745Z,98930.25
2023-09-18T09:31:29.672Z,98930.91
2023-09-18T09:34:00.291Z,98925.91
2023-09-18T09:36:27.311Z,98926.00
2023-09-18T09:38:59.155Z,98925.75
2023-09-18T09:41:29.315Z,98928.31
2023-09-18T09:43:57.591Z,98920.75
2023-09-18T09:46:26.862Z,98916.09
2023-09-18T09:49:06.148Z,98926.09
2023-09-18T09:51:34.235Z,98906.72
2023-09-18T09:54:02.020Z,98900.84
2023-09-18T09:56:52.097Z,98907.16
2023-09-18T09:59:20.924Z,98906.16
2023-09-18T10:01:51.337Z,98900.31
2023-09-18T10:04:21.131Z,98901.13
2023-09-18T10:06:59.658Z,98913.63
2023-09-18T10:09:29.917Z,98907.78
2023-09-18T10:11:58.336Z,98909.44
2023-09-18T10:14:43.536Z,98898.63
2023-09-18T10:17:19.950Z,98903.63
2023-09-18T10:19:57.267Z,98909.19
2023-09-18T10:22:39.545Z,98903.34
2023-09-18T10:25:18.583Z,98902.22
2023-09-18T10:27:54.677Z,98891.69
2023-09-18T10:30:24.942Z,98896.13
2023-09-18T10:32:52.912Z,98892.25
2023-09-18T10:35:21.066Z,98892.84
2023-09-18T10:37:49.976Z,98887.00
2023-09-18T10:40:17.549Z,98875.59
2023-09-18T10:42:46.890Z,98867.97
2023-09-18T10:45:16.093Z,98877.22
2023-09-18T10:47:48.933Z,98872.97
2023-09-18T10:50:27.783Z,98874.75
2023-09-18T10:52:54.782Z,98872.56
2023-09-18T10:55:23.100Z,98873.81
2023-09-18T10:58:01.098Z,98866.88
2023-09-18T11:00:30.370Z,98870.00
2023-09-18T11:03:21.024Z,98868.47
2023-09-18T11:05:48.597Z,98842.66
2023-09-18T11:08:28.317Z,98853.06
2023-09-18T11:11:12.685Z,98855.97
2023-09-18T11:13:47.385Z,98849.16
2023-09-18T11:16:19.936Z,98850.06
2023-09-18T11:19:08.319Z,98847.97
2023-09-18T11:21:36.194Z,98847.69
2023-09-18T11:24:05.399Z,98850.00
2023-09-18T11:26:36.981Z,98838.78
2023-09-18T11:29:11.842Z,98845.19
2023-09-18T11:31:55.250Z,98844.22
2023-09-18T11:34:36.278Z,98818.91
2023-09-18T11:37:20.089Z,98841.03
2023-09-18T11:39:47.328Z,98836.88
2023-09-18T11:42:21.780Z,98835.75
2023-09-18T11:44:48.786Z,98838.97
2023-09-18T11:47:23.504Z,98832.66
2023-09-18T11:49:55.743Z,98814.56
2023-09-18T11:52:28.433Z,98823.28
2023-09-18T11:54:58.125Z,98822.97
2023-09-18T11:57:25.304Z,98815.59
2023-09-18T11:59:52.539Z,98813.00
2023-09-18T12:02:39.583Z,98817.00
2023-09-18T12:05:11.219Z,98814.97
2023-09-18T12:07:38.023Z,98823.53
2023-09-18T12:10:10.065Z,98811.94
2023-09-18T12:12:37.328Z,98825.78
2023-09-18T12:15:07.849Z,98829.13
2023-09-18T12:17:34.583Z,98835.59
2023-09-18T12:20:01.358Z,98834.13
2023-09-18T12:22:29.341Z,98849.34
2023-09-18T12:25:16.290Z,98835.22
2023-09-18T12:27:44.576Z,98839.53
2023-09-18T12:30:21.308Z,98836.13
2023-09-18T12:32:51.507Z,98825.59
2023-09-18T12:35:19.833Z,98810.72
2023-09-18T12:37:46.747Z,98804.72
2023-09-18T12:40:23.793Z,98813.31
2023-09-18T12:42:51.492Z,98809.06
2023-09-18T12:45:18.749Z,98807.09
2023-09-18T12:47:45.787Z,98798.91
2023-09-18T12:50:15.617Z,98794.84
2023-09-18T12:52:43.001Z,98786.44
2023-09-18T12:55:21.384Z,98790.63
2023-09-18T12:57:48.263Z,98785.28
2023-09-18T13:00:15.976Z,98775.66
2023-09-18T13:02:46.142Z,98768.16
2023-09-18T13:05:15.362Z,98769.69
2023-09-18T13:07:48.744Z,98762.22
2023-09-18T13:10:16.182Z,98746.53
2023-09-18T13:12:55.863Z,98752.78
2023-09-18T13:15:30.875Z,98754.78
2023-09-18T13:18:01.112Z,98751.50
2023-09-18T13:20:33.036Z,98738.22
2023-09-18T13:23:01.928Z,98737.72
2023-09-18T13:25:36.604Z,98740.22
2023-09-18T13:28:05.262Z,98748.53
2023-09-18T13:30:35.166Z,98749.63
2023-09-18T13:33:05.383Z,98747.13
2023-09-18T13:35:32.286Z,98748.50
2023-09-18T13:37:59.140Z,98736.88
2023-09-18T13:40:26.309Z,98741.88
2023-09-18T13:42:52.941Z,98734.41
2023-09-18T13:45:19.782Z,98740.50
2023-09-18T13:47:46.593Z,98729.16
2023-09-18T13:50:14.989Z,98729.44
2023-09-18T13:52:41.697Z,98728.25
2023-09-18T13:55:09.915Z,98727.16
2023-09-18T13:57:37.112Z,98718.84
2023-09-18T14:00:08.083Z,98721.63
2023-09-18T14:02:34.970Z,98721.06
2023-09-18T14:05:01.780Z,98726.31
2023-09-18T14:07:28.970Z,98732.66
2023-09-18T14:09:55.583Z,98731.28
2023-09-18T14:12:22.415Z,98727.69
2023-09-18T14:14:49.109Z,98732.63
2023-09-18T14:17:18.857Z,98729.56
2023-09-18T14:19:45.684Z,98721.81
2023-09-18T14:22:12.719Z,98720.44
2023-09-18T14:24:39.441Z,98720.72
2023-09-18T14:27:06.748Z,98709.31
2023-09-18T14:29:34.616Z,98701.56
2023-09-18T14:32:01.957Z,98709.81
2023-09-18T14:34:28.961Z,98713.97
2023-09-18T14:36:55.648Z,98709.25
2023-09-18T14:39:22.487Z,98704.28
2023-09-18T14:41:49.442Z,98700.97
2023-09-18T14:44:16.332Z,98695.69
2023-09-18T14:46:44.422Z,98701.75
2023-09-18T14:49:11.123Z,98700.59
2023-09-18T14:51:37.829Z,98702.00
2023-09-18T14:54:09.208Z,98704.19
2023-09-18T14:56:39.189Z,98695.84
2023-09-18T14:59:08.592Z,98707.47
2023-09-18T15:01:36.035Z,98700.00
2023-09-18T15:04:02.864Z,98711.31
2023-09-18T15:06:30.251Z,98704.03
2023-09-18T15:08:57.081Z,98706.19
2023-09-18T15:11:24.656Z,98709.22
2023-09-18T15:13:51.857Z,98701.50
2023-09-18T15:16:18.575Z,98698.44
2023-09-18T15:18:45.361Z,98693.72
2023-09-18T15:21:12.097Z,98691.78
2023-09-18T15:23:38.964Z,98698.78
2023-09-18T15:26:05.975Z,98694.56
2023-09-18T15:28:32.676Z,98692.78
2023-09-18T15:30:59.296Z,98697.19
2023-09-18T15:33:26.759Z,98695.75
2023-09-18T15:35:54.192Z,98693.59
2023-09-18T15:38:22.294Z,98688.88
2023-09-18T15:40:50.266Z,98682.53
2023-09-18T15:43:18.999Z,98680.28
2023-09-18T15:45:45.761Z,98684.13
2023-09-18T15:48:12.518Z,98691.00
2023-09-18T15:50:39.599Z,98687.91
2023-09-18T15:53:06.437Z,98692.06
2023-09-18T15:55:33.098Z,98695.59
2023-09-18T15:57:59.752Z,98696.13
2023-09-18T16:00:26.454Z,98697.84
2023-09-18T16:02:53.263Z,98698.63
2023-09-18T16:05:25.900Z,98695.19
2023-09-18T16:08:04.411Z,98694.91
2023-09-18T16:10:33.508Z,98691.53
2023-09-18T16:13:00.881Z,98694.16
2023-09-18T16:15:28.860Z,98700.13
2023-09-18T16:17:56.561Z,98706.59
2023-09-18T16:20:23.698Z,98707.72
2023-09-18T16:22:50.583Z,98707.94
2023-09-18T16:25:17.261Z,98706.44
2023-09-18T16:27:44.031Z,98709.63
2023-09-18T16:30:11.717Z,98707.97
2023-09-18T16:32:40.084Z,98718.47
2023-09-18T16:35:07.483Z,98715.31
2023-09-18T16:37:35.210Z,98726.56
2023-09-18T16:40:04.148Z,98721.50
2023-09-18T16:42:31.033Z,98725.25
2023-09-18T16:45:01.002Z,98723.34
2023-09-18T16:47:27.999Z,98732.19
2023-09-18T16:49:55.575Z,98734.34
2023-09-18T16:52:23.270Z,98737.03
2023-09-18T16:54:50.667Z,98747.38
2023-09-18T16:57:17.782Z,98742.38
2023-09-18T16:59:44.670Z,98751.53
2023-09-18T17:02:11.440Z,98754.81
2023-09-18T17:04:51.231Z,98751.16
2023-09-18T17:07:18.395Z,98748.41
2023-09-18T17:09:45.095Z,98752.78
2023-09-18T17:12:11.705Z,98758.06
2023-09-18T17:14:38.912Z,98751.06
2023-09-18T17:17:05.621Z,98752.63
2023-09-18T17:19:32.339Z,98768.91
2023-09-18T17:22:01.394Z,98774.31
2023-09-18T17:24:28.070Z,98767.97
2023-09-18T17:26:54.764Z,98777.72
2023-09-18T17:29:21.490Z,98777.16
2023-09-18T17:31:48.663Z,98771.06
2023-09-18T17:34:15.317Z,98785.03
2023-09-18T17:36:42.063Z,98786.78
2023-09-18T17:39:11.351Z,98794.16
2023-09-18T17:41:38.251Z,98798.75
2023-09-18T17:44:05.128Z,98791.91
2023-09-18T17:46:31.752Z,98795.72
2023-09-18T17:48:58.359Z,98793.47
2023-09-18T17:51:25.017Z,98799.47
2023-09-18T17:53:51.784Z,98808.75
2023-09-18T17:56:18.565Z,98801.72
2023-09-18T17:58:45.204Z,98799.47
2023-09-18T18:01:12.357Z,98803.91
2023-09-18T18:03:41.150Z,98804.50
2023-09-18T18:06:11.410Z,98809.31
2023-09-18T18:08:38.260Z,98812.41
2023-09-18T18:11:05.506Z,98817.94
2023-09-18T18:13:33.030Z,98811.47
2023-09-18T18:16:00.066Z,98811.84
2023-09-18T18:18:27.047Z,98821.63
2023-09-18T18:20:56.544Z,98822.59
2023-09-18T18:23:23.495Z,98831.66
2023-09-18T18:25:56.109Z,98837.16
2023-09-18T18:28:24.015Z,98835.00
2023-09-18T18:30:51.591Z,98834.31
2023-09-18T18:33:22.020Z,98836.78
2023-09-18T18:35:49.783Z,98832.63
2023-09-18T18:38:16.602Z,98843.97
2023-09-18T18:40:46.255Z,98841.34
2023-09-18T18:43:16.897Z,98845.25
2023-09-18T18:45:44.430Z,98842.75
2023-09-18T18:48:11.380Z,98836.31
2023-09-18T18:50:40.255Z,98842.75
2023-09-18T18:53:09.094Z,98846.69
2023-09-18T18:55:35.904Z,98853.72
2023-09-18T18:58:04.120Z,98863.84
2023-09-18T19:00:30.929Z,98854.78
2023-09-18T19:02:57.849Z,98859.13
2023-09-18T19:05:25.460Z,98855.56
2023-09-18T19:07:52.561Z,98853.03
2023-09-18T19:10:19.278Z,98848.03
2023-09-18T19:12:47.643Z,98854.44
2023-09-18T19:15:14.769Z,98855.78
2023-09-18T19:17:42.101Z,98848.28
2023-09-18T19:20:09.208Z,98848.03
2023-09-18T19:22:36.238Z,98854.22
2023-09-18T19:25:05.850Z,98856.97
2023-09-18T19:27:37.669Z,98852.03
2023-09-18T19:30:09.319Z,98852.50
2023-09-18T19:32:40.131Z,98863.25
2023-09-18T19:35:07.984Z,98858.69
2023-09-18T19:37:34.953Z,98858.31
2023-09-18T19:40:03.849Z,98863.66
2023-09-18T19:42:30.538Z,98859.84
2023-09-18T19:44:57.358Z,98864.13
2023-09-18T19:47:24.131Z,98866.97
2023-09-18T19:49:50.739Z,98866.81
2023-09-18T19:52:18.763Z,98865.13
2023-09-18T19:54:46.018Z,98864.75
2023-09-18T19:57:12.928Z,98863.91
2023-09-18T19:59:39.912Z,98864.03
2023-09-18T20:02:07.608Z,98868.19
2023-09-18T20:04:35.078Z,98859.59
2023-09-18T20:07:01.888Z,98860.53
2023-09-18T20:09:28.662Z,98867.91
2023-09-18T20:11:55.425Z,98866.84
2023-09-18T20:14:31.199Z,98873.84
2023-09-18T20:16:59.205Z,98867.81
2023-09-18T20:19:25.849Z,98869.06
2023-09-18T20:21:53.331Z,98876.63
2023-09-18T20:24:20.675Z,98877.69
2023-09-18T20:26:49.101Z,98874.44
2023-09-18T20:29:16.803Z,98876.56
2023-09-18T20:31:43.727Z,98877.63
2023-09-18T20:34:10.969Z,98873.06
2023-09-18T20:36:37.829Z,98873.28
2023-09-18T20:39:05.789Z,98868.75
2023-09-18T20:41:33.624Z,98871.53
2023-09-18T20:44:01.465Z,98870.09
2023-09-18T20:46:31.630Z,98874.66
2023-09-18T20:51:31.879Z,98869.53
2023-09-18T20:54:01.259Z,98871.91
2023-09-18T20:56:28.481Z,98873.34
2023-09-18T20:58:57.567Z,98870.59
2023-09-18T21:01:25.245Z,98869.34
2023-09-18T21:03:52.961Z,98866.44
2023-09-18T21:06:20.246Z,98865.31
2023-09-18T21:08:47.069Z,98870.88
2023-09-18T21:11:14.617Z,98862.66
2023-09-18T21:13:46.975Z,98858.25
2023-09-18T21:16:17.618Z,98858.78
2023-09-18T21:18:44.839Z,98857.53
2023-09-18T21:23:45.253Z,98860.88
2023-09-18T21:26:13.179Z,98858.19
2023-09-18T21:28:40.803Z,98858.66
2023-09-18T21:31:13.475Z,98852.47
2023-09-18T21:33:53.803Z,98855.66
2023-09-18T21:36:22.625Z,98848.97
2023-09-18T21:38:53.096Z,98848.38
2023-09-18T21:41:21.571Z,98851.09
2023-09-18T21:43:48.892Z,98846.06
2023-09-18T21:46:15.746Z,98850.94
2023-09-18T21:48:43.034Z,98848.66
2023-09-18T21:51:12.937Z,98849.31
2023-09-18T21:53:41.475Z,98849.25
2023-09-18T21:56:08.614Z,98832.69
2023-09-18T21:58:35.656Z,98831.88
2023-09-18T22:01:07.382Z,98828.72
2023-09-18T22:03:40.124Z,98829.56
2023-09-18T22:06:07.615Z,98824.47
2023-09-18T22:08:37.957Z,98825.97
2023-09-18T22:11:07.301Z,98827.22
2023-09-18T22:13:39.064Z,98827.06
2023-09-18T22:16:06.189Z,98829.16
2023-09-18T22:18:33.165Z,98825.38
2023-09-18T22:21:01.186Z,98828.31
2023-09-18T22:23:29.135Z,98833.41
2023-09-18T22:28:25.654Z,98824.03
2023-09-18T22:30:53.387Z,98831.22
2023-09-18T22:33:20.345Z,98831.22
2023-09-18T22:35:47.671Z,98823.91
2023-09-18T22:38:17.884Z,98829.38
2023-09-18T22:40:46.103Z,98823.91
2023-09-18T22:43:50.374Z,98823.47
2023-09-18T22:46:55.419Z,98825.34
2023-09-18T22:49:59.644Z,98822.69
2023-09-18T22:52:48.281Z,98821.41
2023-09-18T22:55:17.586Z,98824.97
2023-09-18T22:57:52.713Z,98825.03
2023-09-18T23:00:23.992Z,98819.31
2023-09-18T23:02:51.309Z,98811.38
2023-09-18T23:05:21.870Z,98815.34
2023-09-18T23:07:54.122Z,98821.44
2023-09-18T23:10:22.842Z,98816.00
2023-09-18T23:12:53.160Z,98809.69
2023-09-18T23:15:21.369Z,98813.72
2023-09-18T23:17:48.374Z,98810.97
2023-09-18T23:20:16.443Z,98817.50
2023-09-18T23:22:44.767Z,98819.78
2023-09-18T23:25:13.066Z,98808.66
2023-09-18T23:27:45.300Z,98816.25
2023-09-18T23:30:21.148Z,98810.00
2023-09-18T23:33:03.996Z,98807.94
2023-09-18T23:35:35.238Z,98806.03
2023-09-18T23:38:05.689Z,98805.19
2023-09-18T23:40:34.114Z,98808.41
2023-09-18T23:43:06.552Z,98801.88
2023-09-18T23:45:33.944Z,98804.00
2023-09-18T23:48:10.840Z,98804.66
2023-09-18T23:50:37.966Z,98801.91
2023-09-18T23:53:05.283Z,98803.41
2023-09-18T23:55:33.190Z,98801.91
2023-09-18T23:58:01.234Z,98802.97
